Time;durP1;ratioP1;P1;durP2;ratioP2;P2;SDS_P1;SDS_P2;PMS_P1;PMS_P2;Temp;Humidity;BMP_temperature;BMP_pressure;BME280_temperature;BME280_humidity;BME280_pressure;Samples;Min_cycle;Max_cycle;Signal;HPM_P1;HPM_P2
2023/01/21 00:03:11;;;;;;;43.25;19.20;;;;;;;-0.01;100.00;101311.94;8264425;28;20041;-57
2023/01/21 00:07:12;;;;;;;45.25;20.48;;;;;;;0.01;100.00;101318.06;8263984;28;20042;-57
2023/01/21 00:11:14;;;;;;;42.90;18.50;;;;;;;-0.06;100.00;101333.34;8264292;28;20034;-57
2023/01/21 00:15:15;;;;;;;44.47;20.63;;;;;;;-0.05;100.00;101335.09;8233397;28;20067;-58
2023/01/21 00:19:15;;;;;;;48.28;19.77;;;;;;;0.01;100.00;101348.16;8233460;28;20035;-58
2023/01/21 00:23:15;;;;;;;43.03;20.30;;;;;;;-0.05;100.00;101356.38;8233200;28;20035;-57
2023/01/21 00:27:16;;;;;;;46.30;20.50;;;;;;;0.00;100.00;101353.56;8263371;28;20510;-57
2023/01/21 00:31:16;;;;;;;42.50;18.63;;;;;;;-0.03;100.00;101354.50;8265398;28;20096;-53
2023/01/21 00:35:17;;;;;;;47.22;20.15;;;;;;;-0.08;100.00;101369.75;8265609;28;20125;-52
2023/01/21 00:39:17;;;;;;;37.75;19.02;;;;;;;-0.08;100.00;101371.53;8264558;28;20368;-54
2023/01/21 00:43:18;;;;;;;43.75;18.40;;;;;;;-0.20;100.00;101372.84;8250672;28;20043;-53
2023/01/21 00:47:18;;;;;;;49.38;21.13;;;;;;;-0.35;100.00;101375.13;8232334;28;20043;-53
2023/01/21 00:51:18;;;;;;;48.33;20.88;;;;;;;-0.33;100.00;101387.44;8232546;28;20121;-54
2023/01/21 00:55:19;;;;;;;43.33;20.50;;;;;;;-0.40;100.00;101393.00;8246340;28;20070;-52
2023/01/21 00:59:19;;;;;;;46.72;20.35;;;;;;;-0.78;100.00;101404.88;8264682;28;20113;-54
2023/01/21 01:03:20;;;;;;;50.70;21.30;;;;;;;-0.68;100.00;101416.94;8264071;28;20065;-53
2023/01/21 01:07:20;;;;;;;45.25;20.38;;;;;;;-0.61;100.00;101415.81;8264233;28;20042;-53
2023/01/21 01:11:21;;;;;;;46.38;20.17;;;;;;;-0.53;100.00;101431.50;8263907;28;20094;-51
2023/01/21 01:15:21;;;;;;;52.70;21.83;;;;;;;-0.43;100.00;101433.81;8264130;28;20050;-56
2023/01/21 01:19:22;;;;;;;44.20;19.15;;;;;;;-0.31;100.00;101444.03;8264361;28;20069;-57
2023/01/21 01:23:22;;;;;;;49.33;21.08;;;;;;;-0.34;100.00;101444.13;8263702;28;20515;-57
2023/01/21 01:27:23;;;;;;;43.55;19.40;;;;;;;-0.33;100.00;101447.69;8263688;28;20081;-56
2023/01/21 01:31:23;;;;;;;39.80;19.48;;;;;;;-0.30;100.00;101456.38;8263210;28;20046;-61
2023/01/21 01:35:24;;;;;;;42.85;19.48;;;;;;;-0.60;100.00;101452.09;8263523;28;20399;-57
2023/01/21 01:39:24;;;;;;;42.42;19.50;;;;;;;-0.79;100.00;101466.81;8263599;28;20522;-57
2023/01/21 01:43:46;;;;;;;41.88;18.35;;;;;;;-0.97;100.00;101474.47;8263030;28;20038;-57
2023/01/21 01:47:57;;;;;;;47.25;19.90;;;;;;;-1.11;100.00;101484.59;8262244;28;20069;-58
2023/01/21 01:52:01;;;;;;;40.70;19.55;;;;;;;-1.46;100.00;101493.56;8262547;28;20157;-58
2023/01/21 01:56:02;;;;;;;48.95;20.45;;;;;;;-1.44;100.00;101497.03;8244802;28;20058;-57
2023/01/21 02:00:05;;;;;;;46.15;18.92;;;;;;;-1.72;100.00;101500.44;8229930;28;20508;-56
2023/01/21 02:04:27;;;;;;;49.75;19.75;;;;;;;-1.71;100.00;101511.00;8361693;27;20471;-57
2023/01/21 02:08:28;;;;;;;48.83;19.98;;;;;;;-1.93;100.00;101512.47;8354768;28;20041;-57
2023/01/21 02:12:29;;;;;;;40.97;20.05;;;;;;;-2.06;100.00;101517.22;8353982;28;20068;-58
2023/01/21 02:16:58;;;;;;;43.63;19.23;;;;;;;-1.70;100.00;101526.03;8354408;28;20463;-58
2023/01/21 02:21:39;;;;;;;46.35;20.40;;;;;;;-1.26;100.00;101528.34;8345747;28;20498;-57
2023/01/21 02:26:16;;;;;;;37.70;18.35;;;;;;;-0.88;100.00;101536.09;8352331;28;20052;-55
2023/01/21 02:30:49;;;;;;;34.65;16.58;;;;;;;-0.96;100.00;101530.16;8353293;28;20033;-58
2023/01/21 02:35:13;;;;;;;42.28;17.98;;;;;;;-0.97;100.00;101547.00;8347882;28;20143;-57
2023/01/21 02:39:34;;;;;;;39.05;17.42;;;;;;;-1.07;100.00;101544.63;8353969;28;20037;-57
2023/01/21 02:43:52;;;;;;;46.47;18.92;;;;;;;-1.41;100.00;101544.66;8334992;28;20052;-58
2023/01/21 02:48:04;;;;;;;43.28;19.30;;;;;;;-1.63;100.00;101553.22;8314488;28;20499;-53
2023/01/21 02:52:05;;;;;;;42.85;17.92;;;;;;;-1.76;100.00;101554.44;8320330;28;20033;-53
2023/01/21 02:56:12;;;;;;;40.58;19.85;;;;;;;-2.06;100.00;101556.06;8341397;28;20502;-53
2023/01/21 03:00:20;;;;;;;44.63;18.73;;;;;;;-2.29;100.00;101567.19;8352867;28;20512;-58
2023/01/21 03:09:28;;;;;;;45.40;19.42;;;;;;;-2.42;100.00;101575.44;8322546;28;20190;-55
2023/01/21 03:18:11;;;;;;;37.35;18.85;;;;;;;-2.18;100.00;101580.19;8321381;28;20044;-57
2023/01/21 03:22:19;;;;;;;41.53;17.45;;;;;;;-2.27;100.00;101581.28;8321429;28;20563;-58
2023/01/21 03:26:26;;;;;;;42.65;19.20;;;;;;;-2.34;100.00;101584.09;8321138;28;20046;-58
2023/01/21 03:30:29;;;;;;;41.97;19.88;;;;;;;-2.29;100.00;101587.50;8320986;28;20407;-57
2023/01/21 03:34:33;;;;;;;46.30;20.70;;;;;;;-2.08;100.00;101592.31;8320979;28;20042;-58
2023/01/21 03:38:40;;;;;;;43.10;17.55;;;;;;;-1.35;100.00;101591.38;8321389;28;20415;-58
2023/01/21 03:42:42;;;;;;;32.10;16.85;;;;;;;-1.20;100.00;101613.06;8320515;28;20038;-57
2023/01/21 03:46:50;;;;;;;40.20;18.42;;;;;;;-1.32;100.00;101602.78;8320567;28;20092;-58
2023/01/21 03:50:58;;;;;;;45.42;19.75;;;;;;;-1.59;100.00;101611.41;8320127;28;20042;-57
2023/01/21 03:54:59;;;;;;;41.22;17.63;;;;;;;-2.36;99.79;101623.84;8320498;28;20038;-56
2023/01/21 03:58:59;;;;;;;37.83;16.50;;;;;;;-2.75;99.64;101626.41;8320192;28;20038;-56
2023/01/21 04:02:59;;;;;;;36.72;16.33;;;;;;;-2.78;100.00;101629.13;8320065;28;20038;-58
2023/01/21 04:07:00;;;;;;;40.42;18.17;;;;;;;-2.82;100.00;101630.09;8320216;28;20423;-58
2023/01/21 04:11:01;;;;;;;42.75;18.20;;;;;;;-2.85;100.00;101632.81;8319644;28;20069;-55
2023/01/21 04:15:01;;;;;;;39.97;17.73;;;;;;;-2.89;100.00;101637.31;8318637;28;20037;-55
2023/01/21 04:19:02;;;;;;;37.22;17.00;;;;;;;-3.05;100.00;101637.63;8305529;28;20038;-57
2023/01/21 04:23:02;;;;;;;39.53;17.30;;;;;;;-2.95;100.00;101641.81;8297445;28;20049;-58
2023/01/21 04:27:03;;;;;;;41.08;18.55;;;;;;;-2.91;100.00;101640.84;8269394;28;20093;-58
2023/01/21 04:31:03;;;;;;;40.22;16.83;;;;;;;-2.47;100.00;101652.31;8264793;28;20046;-58
2023/01/21 04:35:04;;;;;;;41.72;16.67;;;;;;;-2.46;100.00;101648.78;8265419;28;20380;-57
2023/01/21 04:39:05;;;;;;;41.10;17.20;;;;;;;-2.65;100.00;101651.81;8263688;28;20515;-57
2023/01/21 04:43:05;;;;;;;35.60;15.98;;;;;;;-2.93;100.00;101650.63;8280842;28;20060;-58
2023/01/21 04:47:06;;;;;;;37.95;16.05;;;;;;;-2.94;100.00;101659.44;8296899;28;20034;-58
2023/01/21 04:51:06;;;;;;;40.13;16.20;;;;;;;-3.07;100.00;101657.91;8296891;28;20038;-58
2023/01/21 04:55:07;;;;;;;45.75;18.27;;;;;;;-3.06;100.00;101657.00;8296849;28;20087;-57
2023/01/21 04:59:10;;;;;;;36.55;16.92;;;;;;;-3.03;100.00;101665.78;8296975;28;20042;-57
2023/01/21 05:03:10;;;;;;;40.97;16.70;;;;;;;-3.13;100.00;101671.25;8296338;28;20116;-57
2023/01/21 05:07:11;;;;;;;43.00;17.90;;;;;;;-3.17;100.00;101672.22;8296328;28;20042;-58
2023/01/21 05:11:15;;;;;;;39.03;16.58;;;;;;;-3.17;100.00;101682.78;8294887;28;20049;-58
2023/01/21 05:15:15;;;;;;;41.33;17.27;;;;;;;-3.33;100.00;101676.03;8296051;28;20037;-57
2023/01/21 05:19:16;;;;;;;34.85;16.73;;;;;;;-3.33;100.00;101689.25;8295919;28;20046;-57
2023/01/21 05:23:16;;;;;;;41.10;16.77;;;;;;;-3.50;100.00;101699.19;8295505;28;20049;-58
2023/01/21 05:27:18;;;;;;;47.92;17.23;;;;;;;-3.81;100.00;101709.38;8295894;28;20041;-58
2023/01/21 05:31:19;;;;;;;40.70;16.63;;;;;;;-3.80;100.00;101710.22;8293834;28;20046;-58
2023/01/21 05:35:22;;;;;;;38.88;17.05;;;;;;;-3.84;100.00;101725.25;8295139;28;20137;-57
2023/01/21 05:39:22;;;;;;;37.17;16.20;;;;;;;-4.31;98.17;101731.13;8295155;28;20042;-58
2023/01/21 05:43:23;;;;;;;38.08;16.75;;;;;;;-4.66;98.06;101738.56;8294547;28;20133;-58
2023/01/21 05:47:23;;;;;;;46.90;17.08;;;;;;;-4.69;99.24;101741.25;8294918;28;20415;-58
2023/01/21 05:51:24;;;;;;;37.45;17.15;;;;;;;-4.84;98.44;101757.22;8294973;28;20077;-58
2023/01/21 05:55:24;;;;;;;40.42;16.05;;;;;;;-5.07;96.69;101764.47;8294662;28;20030;-57
2023/01/21 05:59:24;;;;;;;43.03;17.48;;;;;;;-5.04;98.47;101759.16;8294421;28;20126;-59
2023/01/21 06:03:25;;;;;;;45.45;17.63;;;;;;;-5.04;98.89;101759.16;8294198;28;20061;-58
2023/01/21 06:07:25;;;;;;;45.67;17.73;;;;;;;-5.08;97.11;101762.72;8294291;28;20438;-58
2023/01/21 06:11:26;;;;;;;37.40;15.35;;;;;;;-5.36;95.34;101770.84;8293589;28;20074;-59
2023/01/21 06:15:27;;;;;;;39.03;16.33;;;;;;;-5.63;93.99;101777.19;8294249;28;20077;-53
2023/01/21 06:19:27;;;;;;;31.30;15.02;;;;;;;-5.77;95.28;101784.25;8293303;28;20054;-54
2023/01/21 06:23:28;;;;;;;32.38;14.15;;;;;;;-5.82;95.52;101791.38;8294003;28;20045;-53
2023/01/21 06:27:28;;;;;;;37.47;15.80;;;;;;;-5.97;94.50;101796.69;8293829;28;20037;-53
2023/01/21 06:31:29;;;;;;;40.05;16.05;;;;;;;-6.13;93.99;101804.66;8293542;28;20072;-53
2023/01/21 06:35:29;;;;;;;37.95;15.93;;;;;;;-6.13;93.81;101805.56;8299614;28;20038;-52
2023/01/21 06:39:30;;;;;;;37.28;16.00;;;;;;;-6.13;94.12;101810.81;8278067;28;20125;-53
2023/01/21 06:43:30;;;;;;;39.90;16.75;;;;;;;-6.27;91.77;101816.13;8288096;28;20407;-55
2023/01/21 06:47:31;;;;;;;41.78;17.25;;;;;;;-5.72;97.63;101829.88;8278312;28;20064;-53
2023/01/21 06:51:31;;;;;;;44.00;15.18;;;;;;;-6.34;93.55;101822.25;8264919;28;20504;-54
2023/01/21 06:55:31;;;;;;;47.00;17.40;;;;;;;-6.59;94.10;101824.97;8276755;28;20052;-51
2023/01/21 06:59:32;;;;;;;40.30;15.90;;;;;;;-6.92;94.27;101824.97;8293198;28;20096;-53
2023/01/21 07:03:32;;;;;;;37.80;15.55;;;;;;;-7.03;94.19;101837.22;8292827;28;20041;-53
2023/01/21 07:07:33;;;;;;;38.97;15.05;;;;;;;-7.19;94.79;101841.59;8290701;28;20133;-53
2023/01/21 07:11:33;;;;;;;49.20;17.88;;;;;;;-7.09;95.64;101858.22;8283670;28;20518;-50
2023/01/21 07:15:34;;;;;;;61.50;23.90;;;;;;;-7.22;94.87;101857.38;8265677;28;20089;-53
2023/01/21 07:19:34;;;;;;;51.75;20.20;;;;;;;-7.06;96.20;101868.75;8275992;28;20542;-53
2023/01/21 07:23:34;;;;;;;64.50;23.02;;;;;;;-6.86;96.07;101867.03;8273296;28;20049;-51
2023/01/21 07:27:35;;;;;;;70.35;24.60;;;;;;;-6.99;94.53;101874.00;8292859;28;20042;-52
2023/01/21 07:31:35;;;;;;;79.18;28.30;;;;;;;-7.15;93.32;101885.38;8289557;28;20100;-52
2023/01/21 07:35:36;;;;;;;70.35;25.48;;;;;;;-7.22;94.11;101888.00;8292923;28;20063;-54
2023/01/21 07:39:36;;;;;;;57.10;23.08;;;;;;;-7.34;94.27;101888.84;8292770;28;20120;-53
2023/01/21 07:43:37;;;;;;;61.30;22.02;;;;;;;-7.34;93.87;101891.47;8291008;28;20099;-50
2023/01/21 07:47:37;;;;;;;57.50;20.77;;;;;;;-7.25;93.94;101903.75;8291045;28;20042;-51
2023/01/21 07:51:38;;;;;;;52.92;21.17;;;;;;;-7.30;93.02;101900.22;8291449;28;20072;-52
2023/01/21 07:55:39;;;;;;;79.22;30.80;;;;;;;-7.20;93.94;101910.75;8291696;28;20042;-53
2023/01/21 07:59:39;;;;;;;41.38;16.92;;;;;;;-7.35;94.05;101912.47;8282987;28;20046;-54
2023/01/21 08:03:40;;;;;;;66.75;24.58;;;;;;;-7.35;94.74;101915.09;8298196;28;20080;-49
2023/01/21 08:07:40;;;;;;;43.97;17.52;;;;;;;-7.48;94.75;101921.19;8297554;28;20038;-53
2023/01/21 08:11:42;;;;;;;52.88;19.27;;;;;;;-7.46;95.22;101924.69;8286044;28;20066;-57
2023/01/21 08:15:42;;;;;;;49.35;18.08;;;;;;;-7.55;95.42;101924.66;8271327;28;20034;-57
2023/01/21 08:19:43;;;;;;;53.05;20.20;;;;;;;-7.63;95.44;101937.75;8269121;28;20046;-57
2023/01/21 08:23:43;;;;;;;60.92;22.00;;;;;;;-7.45;96.19;101934.31;8266513;28;20038;-56
2023/01/21 08:27:44;;;;;;;53.30;20.98;;;;;;;-7.35;96.54;101949.25;8288169;28;20491;-57
2023/01/21 08:31:44;;;;;;;54.22;20.40;;;;;;;-7.33;96.59;101942.22;8277191;28;20086;-56
2023/01/21 08:35:45;;;;;;;58.03;19.42;;;;;;;-7.31;97.57;101943.13;8278641;28;20519;-57
2023/01/21 08:39:45;;;;;;;63.67;21.33;;;;;;;-7.22;98.06;101941.41;8277120;28;20038;-56
2023/01/21 08:43:45;;;;;;;56.78;19.65;;;;;;;-6.85;97.63;101945.88;8276060;28;20104;-56
2023/01/21 08:47:46;;;;;;;61.00;20.13;;;;;;;-6.52;96.62;101952.91;8277803;28;20577;-56
2023/01/21 08:51:47;;;;;;;52.08;19.80;;;;;;;-6.37;95.03;101971.31;8283383;28;20053;-49
2023/01/21 08:55:47;;;;;;;56.40;19.88;;;;;;;-6.47;93.50;101967.81;8277174;28;20509;-52
2023/01/21 08:59:48;;;;;;;63.05;22.77;;;;;;;-6.20;94.32;101982.69;8271535;28;20565;-52
2023/01/21 09:03:53;;;;;;;57.60;20.63;;;;;;;-5.62;94.22;101979.06;8277319;28;20045;-51
2023/01/21 09:07:54;;;;;;;61.38;21.90;;;;;;;-5.19;92.91;101978.03;8282842;28;20045;-54
2023/01/21 09:11:54;;;;;;;68.63;24.85;;;;;;;-4.76;92.35;101987.47;8284453;28;20038;-52
2023/01/21 09:15:55;;;;;;;71.78;26.38;;;;;;;-4.46;90.26;101996.94;8276141;28;20523;-50
2023/01/21 09:19:55;;;;;;;68.50;25.60;;;;;;;-4.06;89.19;102004.53;8278274;28;20046;-51
2023/01/21 09:23:55;;;;;;;72.82;25.55;;;;;;;-3.58;88.85;102000.53;8290818;28;20038;-51
2023/01/21 09:27:56;;;;;;;68.40;23.95;;;;;;;-3.13;86.90;101997.38;8286009;28;20049;-52
2023/01/21 09:31:56;;;;;;;60.47;24.33;;;;;;;-2.55;87.35;102008.06;8278267;28;20045;-52
2023/01/21 09:36:00;;;;;;;66.82;22.52;;;;;;;-2.25;83.95;102012.88;8279539;28;20128;-53
2023/01/21 09:40:01;;;;;;;;;;;;;;;-1.69;82.64;102023.41;8278816;28;20525;-50
2023/01/21 09:44:25;;;;;;;55.55;23.50;;;;;;;-1.70;83.57;102029.63;8282168;28;20291;-52
2023/01/21 09:48:32;;;;;;;67.30;24.73;;;;;;;-1.90;87.06;102031.72;8290753;28;20049;-54
2023/01/21 09:52:43;;;;;;;60.50;25.35;;;;;;;-2.19;87.98;102036.63;8286608;28;20041;-54
2023/01/21 09:57:11;;;;;;;63.25;25.88;;;;;;;-2.06;91.16;102043.47;8283060;28;20033;-52
2023/01/21 10:01:23;;;;;;;79.72;27.83;;;;;;;-1.72;95.34;102044.66;8289250;28;20064;-57
2023/01/21 10:10:05;;;;;;;72.45;29.67;;;;;;;-1.04;100.00;102054.88;8357017;27;20123;-54
2023/01/21 10:14:46;;;;;;;72.43;30.00;;;;;;;-0.73;100.00;102050.66;8343931;28;20067;-56
2023/01/21 10:18:50;;;;;;;82.32;29.60;;;;;;;-0.31;100.00;102052.41;8351996;28;20071;-56
2023/01/21 10:22:56;;;;;;;70.28;26.45;;;;;;;-0.12;100.00;102050.22;8344637;28;20084;-55
2023/01/21 10:26:59;;;;;;;72.85;29.00;;;;;;;0.03;100.00;102056.00;8339803;28;20515;-57
2023/01/21 10:31:06;;;;;;;64.20;27.02;;;;;;;0.20;100.00;102052.06;8350600;28;20052;-55
2023/01/21 10:35:17;;;;;;;64.57;25.73;;;;;;;0.39;100.00;102054.22;8349626;28;20079;-56
2023/01/21 10:39:32;;;;;;;54.83;23.77;;;;;;;0.54;98.97;102052.94;8343666;28;20041;-53
2023/01/21 10:43:48;;;;;;;56.10;24.98;;;;;;;0.63;99.11;102058.03;8341970;28;20112;-54
2023/01/21 10:48:00;;;;;;;55.00;23.05;;;;;;;0.69;98.88;102052.53;8330968;28;20052;-55
2023/01/21 10:52:11;;;;;;;60.90;24.75;;;;;;;0.77;98.16;102051.44;8340661;28;20049;-52
2023/01/21 10:56:21;;;;;;;66.28;28.15;;;;;;;0.77;99.95;102055.88;8339899;28;20068;-53
2023/01/21 11:00:26;;;;;;;64.82;28.23;;;;;;;0.79;99.60;102060.22;8330987;28;20041;-55
2023/01/21 11:04:27;;;;;;;69.80;29.45;;;;;;;0.89;98.67;102056.44;8332162;28;20076;-56
2023/01/21 11:08:28;;;;;;;63.97;25.63;;;;;;;0.97;98.17;102053.53;8322082;28;20042;-56
2023/01/21 11:12:29;;;;;;;57.35;25.23;;;;;;;1.04;97.76;102049.78;8322405;28;20052;-57
2023/01/21 11:16:42;;;;;;;54.80;25.13;;;;;;;1.08;97.29;102062.09;8342772;28;20044;-56
2023/01/21 11:20:43;;;;;;;56.72;25.08;;;;;;;1.16;97.37;102062.78;8300814;28;20096;-56
2023/01/21 11:24:46;;;;;;;62.17;26.98;;;;;;;1.18;98.09;102056.47;8300004;28;20049;-56
2023/01/21 11:28:46;;;;;;;52.93;24.40;;;;;;;1.27;98.09;102063.31;8324784;28;20053;-55
2023/01/21 11:32:47;;;;;;;59.85;24.85;;;;;;;1.28;97.85;102059.75;8323756;28;20420;-56
2023/01/21 11:37:05;;;;;;;56.25;22.83;;;;;;;1.31;97.72;102059.66;8323856;28;20042;-52
2023/01/21 11:41:16;;;;;;;53.88;24.30;;;;;;;1.29;98.84;102062.38;8305060;28;20049;-54
2023/01/21 11:45:35;;;;;;;60.47;25.27;;;;;;;1.33;98.24;102063.13;8290945;28;20544;-53
2023/01/21 11:49:45;;;;;;;54.63;24.90;;;;;;;1.32;98.61;102061.41;8297938;28;20037;-51
2023/01/21 11:53:46;;;;;;;57.55;25.48;;;;;;;1.33;100.00;102048.03;8297632;28;20038;-51
2023/01/21 11:57:51;;;;;;;65.15;28.10;;;;;;;1.37;100.00;102054.16;8329097;28;20151;-52
2023/01/21 12:02:02;;;;;;;54.22;25.13;;;;;;;1.44;99.55;102050.38;8299961;28;20124;-51
2023/01/21 12:06:06;;;;;;;56.78;24.48;;;;;;;1.48;98.32;102052.03;8321965;28;20454;-57
2023/01/21 12:10:19;;;;;;;57.90;24.30;;;;;;;1.56;97.64;102056.19;8323689;28;20045;-55
2023/01/21 12:14:34;;;;;;;51.30;23.27;;;;;;;1.55;98.75;102042.91;8334464;28;20087;-57
2023/01/21 12:19:06;;;;;;;55.30;23.80;;;;;;;1.58;97.23;102043.72;8320569;28;20041;-53
2023/01/21 12:28:05;;;;;;;51.03;22.13;;;;;;;1.65;97.63;102036.41;8308253;28;20391;-55
2023/01/21 12:32:25;;;;;;;55.85;24.80;;;;;;;1.67;98.23;102027.44;8307759;28;20054;-54
2023/01/21 12:36:48;;;;;;;63.85;30.40;;;;;;;1.68;99.68;102023.00;8315147;28;20037;-51
2023/01/21 12:40:56;;;;;;;58.73;29.27;;;;;;;1.73;100.00;102013.91;8305212;28;20087;-52
2023/01/21 12:45:05;;;;;;;67.57;28.70;;;;;;;1.77;100.00;102023.56;8315405;28;20037;-52
2023/01/21 12:49:17;;;;;;;61.28;25.08;;;;;;;1.77;100.00;102017.38;8301686;28;20030;-52
2023/01/21 12:53:28;;;;;;;57.03;26.15;;;;;;;1.86;100.00;102027.75;8307436;28;20037;-51
2023/01/21 12:57:38;;;;;;;62.90;26.63;;;;;;;1.84;100.00;102017.13;8296193;28;20420;-51
2023/01/21 13:01:56;;;;;;;59.92;24.92;;;;;;;1.85;100.00;102025.97;8302413;28;20070;-54
2023/01/21 13:06:05;;;;;;;60.38;26.70;;;;;;;1.85;100.00;102025.97;8300445;28;20037;-51
2023/01/21 13:10:33;;;;;;;70.30;31.25;;;;;;;1.86;100.00;102027.75;8313965;28;20165;-53
2023/01/21 13:14:39;;;;;;;61.28;28.00;;;;;;;1.81;100.00;102027.00;8315343;28;20107;-55
2023/01/21 13:18:44;;;;;;;63.75;27.17;;;;;;;1.81;100.00;102035.00;8312674;28;20495;-51
2023/01/21 13:23:03;;;;;;;59.45;25.20;;;;;;;1.82;100.00;102032.28;8302912;28;20304;-51
2023/01/21 13:27:15;;;;;;;58.03;25.42;;;;;;;1.83;100.00;102036.69;8289119;28;20177;-52
2023/01/21 13:31:26;;;;;;;66.15;26.30;;;;;;;1.87;100.00;102042.81;8287180;28;20048;-54
2023/01/21 13:40:12;;;;;;;61.55;27.98;;;;;;;1.89;100.00;102038.28;8300816;27;20385;-52
2023/01/21 13:44:53;;;;;;;68.90;28.38;;;;;;;1.93;100.00;102034.63;8313830;28;20034;-55
2023/01/21 13:49:33;;;;;;;71.32;29.50;;;;;;;1.94;100.00;102042.56;8300513;28;20506;-55
2023/01/21 13:53:49;;;;;;;75.35;31.23;;;;;;;1.97;100.00;102036.25;8284303;28;20042;-56
2023/01/21 13:58:05;;;;;;;67.10;29.83;;;;;;;1.96;100.00;102050.53;8313149;28;20053;-54
2023/01/21 14:02:30;;;;;;;64.93;28.27;;;;;;;1.98;100.00;102044.22;8315802;28;20056;-56
2023/01/21 14:06:38;;;;;;;75.20;29.02;;;;;;;2.00;100.00;102052.16;8316749;28;20041;-56
2023/01/21 14:10:47;;;;;;;71.70;30.67;;;;;;;2.01;100.00;102053.91;8315119;28;20125;-57
2023/01/21 14:15:21;;;;;;;76.97;30.73;;;;;;;2.03;100.00;102057.41;8309192;28;20108;-54
2023/01/21 14:19:50;;;;;;;66.32;29.02;;;;;;;2.07;100.00;102064.38;8288624;28;20092;-58
2023/01/21 14:24:16;;;;;;;78.53;30.30;;;;;;;2.06;100.00;102062.63;8294587;28;20038;-57
2023/01/21 14:28:45;;;;;;;71.43;28.90;;;;;;;2.08;100.00;102057.25;8316018;28;20574;-56
2023/01/21 14:32:57;;;;;;;68.53;30.25;;;;;;;2.08;100.00;102060.81;8294009;28;20061;-57
2023/01/21 14:37:08;;;;;;;70.13;26.98;;;;;;;2.09;100.00;102062.53;8280324;28;20278;-53
2023/01/21 14:41:10;;;;;;;69.13;28.00;;;;;;;2.06;100.00;102070.63;8290580;28;20029;-52
2023/01/21 14:45:13;;;;;;;70.88;28.05;;;;;;;2.06;100.00;102062.63;8292010;28;20546;-56
2023/01/21 14:49:42;;;;;;;69.22;28.27;;;;;;;2.12;100.00;102057.09;8274893;28;20041;-56
2023/01/21 14:53:48;;;;;;;65.68;23.58;;;;;;;2.20;98.32;102060.41;8259708;28;20050;-55
2023/01/21 14:57:51;;;;;;;56.88;23.25;;;;;;;2.22;97.63;102061.19;8295839;28;20042;-55
2023/01/21 15:02:02;;;;;;;51.05;21.95;;;;;;;2.21;98.55;102067.47;8283404;28;20049;-55
2023/01/21 15:06:08;;;;;;;45.58;20.67;;;;;;;2.28;95.68;102077.00;8279555;28;20046;-55
2023/01/21 15:10:14;;;;;;;44.35;18.00;;;;;;;2.30;93.67;102076.97;8289887;28;20076;-55
2023/01/21 15:14:23;;;;;;;41.63;18.05;;;;;;;2.35;92.47;102081.22;8283054;28;20399;-55
2023/01/21 15:18:34;;;;;;;45.75;19.35;;;;;;;2.30;93.14;102077.84;8274810;28;20050;-56
2023/01/21 15:22:39;;;;;;;41.70;17.85;;;;;;;2.26;92.67;102078.00;8281057;28;20030;-56
2023/01/21 15:26:41;;;;;;;42.70;18.75;;;;;;;2.32;91.00;102092.03;8288779;28;20061;-54
2023/01/21 15:30:53;;;;;;;40.88;17.17;;;;;;;2.30;92.72;102096.53;8298632;28;20040;-56
2023/01/21 15:34:58;;;;;;;47.45;19.38;;;;;;;2.22;92.37;102101.22;8259500;28;20518;-53
2023/01/21 15:39:09;;;;;;;38.75;18.15;;;;;;;2.21;92.66;102099.47;8267080;28;20065;-53
2023/01/21 15:43:53;;;;;;;46.55;19.02;;;;;;;2.26;91.65;102108.22;8274259;28;20030;-52
2023/01/21 15:48:07;;;;;;;47.95;19.65;;;;;;;2.25;92.55;102106.47;8271743;28;20072;-54
2023/01/21 15:52:47;;;;;;;47.20;19.07;;;;;;;2.20;93.65;102108.41;8281006;28;20052;-52
2023/01/21 15:57:27;;;;;;;46.00;19.35;;;;;;;2.13;94.39;102106.84;8267890;28;20563;-54
2023/01/21 16:01:35;;;;;;;48.03;20.92;;;;;;;2.08;97.10;102113.25;8261863;28;20049;-50
2023/01/21 16:05:48;;;;;;;50.72;21.30;;;;;;;2.10;95.45;102112.28;8274282;28;20506;-54
2023/01/21 16:10:30;;;;;;;53.25;21.25;;;;;;;2.11;95.70;102114.06;8260394;28;20125;-53
2023/01/21 16:15:00;;;;;;;52.10;21.48;;;;;;;2.07;96.94;102122.19;8279807;28;20311;-54
2023/01/21 16:19:09;;;;;;;56.33;22.55;;;;;;;1.98;97.27;102112.66;8275925;28;20099;-53
2023/01/21 16:23:14;;;;;;;56.25;23.60;;;;;;;1.87;96.85;102114.81;8268372;28;20040;-54
2023/01/21 16:27:22;;;;;;;57.00;24.02;;;;;;;1.74;97.45;102113.44;8284445;28;20034;-57
2023/01/21 16:31:22;;;;;;;55.78;21.77;;;;;;;1.64;97.78;102122.59;8257213;28;20566;-55
2023/01/21 16:35:23;;;;;;;54.03;22.48;;;;;;;1.58;97.54;102125.44;8285054;28;20414;-55
2023/01/21 16:39:24;;;;;;;55.30;21.17;;;;;;;1.53;97.41;102124.72;8265342;28;20519;-55
2023/01/21 16:43:26;;;;;;;53.67;22.27;;;;;;;1.55;97.30;102128.19;8283733;28;20056;-54
2023/01/21 16:47:35;;;;;;;50.42;20.52;;;;;;;1.56;96.76;102124.63;8255209;28;20491;-55
2023/01/21 16:51:40;;;;;;;52.30;21.08;;;;;;;1.57;96.36;102126.38;8254002;28;20044;-55
2023/01/21 16:55:44;;;;;;;;;;;;;;;1.56;96.23;102124.63;8267230;28;20045;-55
2023/01/21 16:59:47;;;;;;;45.85;18.70;;;;;;;1.56;95.75;102129.97;8264965;28;20072;-55
2023/01/21 17:03:48;;;;;;;40.53;18.30;;;;;;;1.53;95.99;102122.06;8257575;28;20117;-52
2023/01/21 17:07:53;;;;;;;47.92;17.83;;;;;;;1.48;96.13;102129.31;8268755;28;20491;-53
2023/01/21 17:11:55;;;;;;;39.47;18.02;;;;;;;1.56;94.47;102130.81;8265778;28;20074;-55
2023/01/21 17:15:59;;;;;;;46.90;18.90;;;;;;;1.51;95.45;102132.78;8265811;28;20512;-56
2023/01/21 17:20:00;;;;;;;43.05;17.35;;;;;;;1.52;95.54;102134.50;8270105;28;20045;-53
2023/01/21 17:24:06;;;;;;;42.28;17.88;;;;;;;1.52;95.61;102125.63;8268576;28;20037;-54
2023/01/21 17:28:29;;;;;;;42.60;17.00;;;;;;;1.45;96.36;102140.06;8266181;28;20056;-54
2023/01/21 17:32:32;;;;;;;37.20;16.55;;;;;;;1.50;95.73;102138.13;8253904;28;20054;-55
2023/01/21 17:36:37;;;;;;;39.10;17.15;;;;;;;1.47;95.85;102131.09;8277711;28;20491;-54
2023/01/21 17:40:44;;;;;;;43.95;18.52;;;;;;;1.36;97.20;102137.63;8262363;28;20717;-54
2023/01/21 17:44:47;;;;;;;45.05;18.40;;;;;;;1.15;98.59;102140.91;8273443;28;20487;-55
2023/01/21 17:48:52;;;;;;;50.67;19.50;;;;;;;1.15;99.43;102148.88;8260651;28;20069;-54
2023/01/21 17:53:00;;;;;;;55.55;20.58;;;;;;;1.10;100.00;102154.34;8253329;28;20301;-55
2023/01/21 17:57:00;;;;;;;51.78;20.80;;;;;;;1.05;99.51;102155.38;8263425;28;20054;-55
2023/01/21 18:01:03;;;;;;;44.40;18.50;;;;;;;1.05;98.81;102152.72;8260775;28;20490;-54
2023/01/21 18:05:03;;;;;;;44.20;18.35;;;;;;;1.10;98.30;102149.00;8266005;28;20074;-55
2023/01/21 18:09:05;;;;;;;41.60;19.20;;;;;;;1.15;98.29;102157.75;8255117;28;20053;-53
2023/01/21 18:13:06;;;;;;;44.63;17.50;;;;;;;1.22;97.10;102158.47;8248393;28;20050;-53
2023/01/21 18:17:13;;;;;;;45.63;18.35;;;;;;;1.28;96.55;102145.84;8266000;28;20054;-54
2023/01/21 18:21:18;;;;;;;40.17;18.13;;;;;;;1.31;96.45;102151.09;8265809;28;20400;-55
2023/01/21 18:25:19;;;;;;;39.58;17.95;;;;;;;1.47;94.68;102164.88;8286152;28;20060;-52
2023/01/21 18:29:20;;;;;;;39.35;16.45;;;;;;;1.47;94.45;102162.22;8288272;28;20034;-55
2023/01/21 18:33:22;;;;;;;44.55;18.55;;;;;;;1.51;93.94;102174.53;8271826;28;20037;-55
2023/01/21 18:37:24;;;;;;;34.92;16.75;;;;;;;1.49;93.73;102171.00;8268894;28;20050;-53
2023/01/21 18:41:25;;;;;;;42.83;17.88;;;;;;;1.47;93.18;102179.03;8255279;28;20489;-54
2023/01/21 18:45:27;;;;;;;36.75;15.57;;;;;;;1.45;92.61;102178.25;8253158;28;20061;-55
2023/01/21 18:49:28;;;;;;;34.25;15.43;;;;;;;1.42;92.58;102175.66;8262458;28;20049;-55
2023/01/21 18:53:28;;;;;;;38.15;15.90;;;;;;;1.40;92.63;102172.16;8255452;28;20484;-54
2023/01/21 18:57:29;;;;;;;38.15;16.02;;;;;;;1.46;92.22;102187.09;8283756;28;20423;-55
2023/01/21 19:01:29;;;;;;;35.40;15.43;;;;;;;1.46;92.23;102171.09;8266033;28;20049;-56
2023/01/21 19:05:35;;;;;;;34.65;15.00;;;;;;;1.40;92.38;102176.63;8282764;28;20807;-55